Flugplatz Torgau-Beilrode

Für EDOG sind keine METAR/TAF Berichte vorhanden.
Es werden die Flugwettermeldungen vom Flugplatz Holzdorf Airport in 23 km Entfernung angezeigt.

Bericht für ETSH

vom 17.09. um 13:20 UTC

Wind 12 kt aus 280°

Sichtweite 10 km oder mehr

schwacher Regenschauer

gering bewölkt in 2800 ft

aufgebrochene Bewölkung in 3700 ft

Temperatur 14.0°C

Taupunkt 9.0°C

Luftfeuchtigkeit 72%

Luftdruck 1014 hPa

ETSH 171320Z 28012KT 9999 -SHRA FEW028 BKN037 14/09 Q1014 BLU BLU TEMPO WHT

Prognose für ETSH

vom 17.09. um 00:00 UTC

Zwischen 00:00 UTC und 00:00 UTC

Wind 15 kt aus 270° in Böen 25 kt

Sichtweite 10 km oder mehr

keine signifikanten Wettererscheinungen

aufgelockert bewölkt in 3500 ft

aufgebrochene Bewölkung in 5000 ft


Zwischen 00:00 UTC und 00:00 UTC zeitweise

Wind 20 kt aus 280° in Böen 33 kt

Sichtweite 5000 m

Regenschauer

aufgelockert bewölkt in 1500 ft

aufgebrochene Bewölkung in 2000 ft


Zwischen 00:00 und 00:00 UTC übergehend zu

Wind 10 kt aus 270° in Böen 20 kt

Sichtweite 10 km oder mehr

keine signifikanten Wettererscheinungen

aufgelockert bewölkt in 5000 ft

TAF ETSH 171323Z 1714/1723 27015G25KT 9999 NSW SCT035 BKN050 TEMPO 1714/1717 28020G33KT 5000 SHRA SCT015 BKN020CB BECMG 1716/1718 27010G20KT 9999 NSW SCT050
Impressum